Time;durP1;ratioP1;P1;durP2;ratioP2;P2;SDS_P1;SDS_P2;PMS_P1;PMS_P2;Temp;Humidity;BMP_temperature;BMP_pressure;BME280_temperature;BME280_humidity;BME280_pressure;Samples;Min_cycle;Max_cycle;Signal;HPM_P1;HPM_P2
2022/05/13 00:02:22;;;;;;;11.63;6.15;;;;;;;;;;4997206;28;20060;-66
2022/05/13 00:04:53;;;;;;;12.52;6.30;;;;;;;;;;5029088;28;20053;-66
2022/05/13 00:07:24;;;;;;;11.68;6.18;;;;;;;;;;5050936;28;20060;-66
2022/05/13 00:10:00;;;;;;;11.55;6.65;;;;;;;;;;5052526;28;20192;-65
2022/05/13 00:12:33;;;;;;;11.15;6.00;;;;;;;;;;5068572;28;20153;-66
2022/05/13 00:15:06;;;;;;;12.15;6.60;;;;;;;;;;5068771;28;20051;-66
2022/05/13 00:17:37;;;;;;;16.80;6.70;;;;;;;;;;5008588;28;20057;-65
2022/05/13 00:20:11;;;;;;;16.23;6.63;;;;;;;;;;5009006;28;20057;-65
2022/05/13 00:22:47;;;;;;;14.25;7.10;;;;;;;;;;5008922;28;20060;-65
2022/05/13 00:25:20;;;;;;;12.00;6.40;;;;;;;;;;5009081;28;20054;-65
2022/05/13 00:27:54;;;;;;;16.20;6.55;;;;;;;;;;5008876;28;20045;-65
2022/05/13 00:30:26;;;;;;;10.00;5.20;;;;;;;;;;5036573;28;20386;-65
2022/05/13 00:32:58;;;;;;;11.25;6.40;;;;;;;;;;5008741;28;20054;-65
2022/05/13 00:35:29;;;;;;;15.60;6.85;;;;;;;;;;5008770;28;20057;-66
2022/05/13 00:38:00;;;;;;;12.55;6.43;;;;;;;;;;4960077;28;20060;-65
2022/05/13 00:40:32;;;;;;;12.05;6.45;;;;;;;;;;4975918;28;20063;-65
2022/05/13 00:43:06;;;;;;;14.85;7.13;;;;;;;;;;4988042;28;20042;-65
2022/05/13 00:45:38;;;;;;;12.90;7.38;;;;;;;;;;4989201;28;20059;-65
2022/05/13 00:48:09;;;;;;;13.73;7.40;;;;;;;;;;4989093;28;20058;-66
2022/05/13 00:50:40;;;;;;;14.98;7.57;;;;;;;;;;4989050;28;20062;-66
2022/05/13 00:53:14;;;;;;;13.00;6.57;;;;;;;;;;4989038;28;20406;-65
2022/05/13 00:55:45;;;;;;;15.88;7.00;;;;;;;;;;5016475;28;20057;-65
2022/05/13 00:58:18;;;;;;;13.27;7.00;;;;;;;;;;4995431;28;20049;-65
2022/05/13 01:00:49;;;;;;;13.25;5.85;;;;;;;;;;5012193;28;20650;-65
2022/05/13 01:03:20;;;;;;;13.05;6.93;;;;;;;;;;4996155;28;20049;-65
2022/05/13 01:05:55;;;;;;;12.73;6.70;;;;;;;;;;5012215;28;20054;-65
2022/05/13 01:08:31;;;;;;;13.18;6.88;;;;;;;;;;4991582;28;20058;-66
2022/05/13 01:11:06;;;;;;;15.30;7.32;;;;;;;;;;5008623;28;20065;-66
2022/05/13 01:13:37;;;;;;;12.60;6.93;;;;;;;;;;5011768;28;20050;-65
2022/05/13 01:16:07;;;;;;;16.02;7.40;;;;;;;;;;5011974;28;20053;-65
2022/05/13 01:18:45;;;;;;;14.30;7.90;;;;;;;;;;4996147;28;20056;-66
2022/05/13 01:21:22;;;;;;;13.00;7.45;;;;;;;;;;4996728;28;20041;-66
2022/05/13 01:23:53;;;;;;;13.35;7.05;;;;;;;;;;5008534;28;20087;-66
2022/05/13 01:26:29;;;;;;;14.50;7.40;;;;;;;;;;4975858;28;20058;-66
2022/05/13 01:29:02;;;;;;;16.75;6.80;;;;;;;;;;5027967;28;20061;-65
2022/05/13 01:31:36;;;;;;;14.27;6.38;;;;;;;;;;5028137;28;20425;-66
2022/05/13 01:34:09;;;;;;;13.63;7.13;;;;;;;;;;5011443;28;20576;-66
2022/05/13 01:36:41;;;;;;;11.23;5.60;;;;;;;;;;5028256;28;20397;-65
2022/05/13 01:39:12;;;;;;;15.02;6.68;;;;;;;;;;5012071;28;20062;-66
2022/05/13 01:41:42;;;;;;;12.15;6.30;;;;;;;;;;5027881;28;20053;-66
2022/05/13 01:44:13;;;;;;;14.25;6.43;;;;;;;;;;4946507;28;20050;-65
2022/05/13 01:46:43;;;;;;;13.70;7.53;;;;;;;;;;5042911;28;20052;-66
2022/05/13 01:49:15;;;;;;;15.30;7.93;;;;;;;;;;5031753;28;20053;-65
2022/05/13 01:51:45;;;;;;;14.00;7.07;;;;;;;;;;5061486;28;20057;-66
2022/05/13 01:54:16;;;;;;;14.75;7.75;;;;;;;;;;5067877;28;20064;-65
2022/05/13 01:56:46;;;;;;;23.70;10.68;;;;;;;;;;5071142;28;20064;-66
2022/05/13 01:59:18;;;;;;;23.88;11.07;;;;;;;;;;4998508;28;20748;-66
2022/05/13 02:01:49;;;;;;;21.83;10.13;;;;;;;;;;4982517;28;20068;-66
2022/05/13 02:04:20;;;;;;;19.30;8.90;;;;;;;;;;5014620;28;20062;-65
2022/05/13 02:06:50;;;;;;;17.67;8.32;;;;;;;;;;5042787;28;20053;-66
2022/05/13 02:09:21;;;;;;;17.60;8.00;;;;;;;;;;5031043;28;20397;-66
2022/05/13 02:11:52;;;;;;;18.08;8.55;;;;;;;;;;4971992;28;20051;-65
2022/05/13 02:14:23;;;;;;;21.33;8.98;;;;;;;;;;4972160;28;20066;-65
2022/05/13 02:16:53;;;;;;;18.50;8.57;;;;;;;;;;4972172;28;20088;-65
2022/05/13 02:19:24;;;;;;;17.45;8.55;;;;;;;;;;4955839;28;20562;-65
2022/05/13 02:21:54;;;;;;;16.08;8.18;;;;;;;;;;4952659;29;20054;-65
2022/05/13 02:24:25;;;;;;;18.38;8.77;;;;;;;;;;4905342;29;20059;-66
2022/05/13 02:26:56;;;;;;;16.55;8.50;;;;;;;;;;4859760;29;20055;-66
2022/05/13 02:29:26;;;;;;;16.50;8.50;;;;;;;;;;4952406;29;20051;-65
2022/05/13 02:31:57;;;;;;;14.85;8.50;;;;;;;;;;4952654;29;20099;-65
2022/05/13 02:34:28;;;;;;;16.42;8.07;;;;;;;;;;4952546;29;20102;-65
2022/05/13 02:36:58;;;;;;;20.23;8.70;;;;;;;;;;4973442;28;20549;-65
2022/05/13 02:39:29;;;;;;;18.20;7.97;;;;;;;;;;4992545;28;20059;-65
2022/05/13 02:42:00;;;;;;;19.00;8.73;;;;;;;;;;4971629;28;20078;-65
2022/05/13 02:44:31;;;;;;;23.40;9.15;;;;;;;;;;4956060;28;20051;-65
2022/05/13 02:47:01;;;;;;;20.55;9.32;;;;;;;;;;4952543;28;20468;-65
2022/05/13 02:49:32;;;;;;;20.42;9.02;;;;;;;;;;4920397;29;20103;-66
2022/05/13 02:52:02;;;;;;;20.30;9.73;;;;;;;;;;4962337;28;20058;-65
2022/05/13 02:54:34;;;;;;;19.52;9.18;;;;;;;;;;4923797;28;20057;-65
2022/05/13 02:57:05;;;;;;;17.55;8.05;;;;;;;;;;4971645;28;20153;-65
2022/05/13 02:59:36;;;;;;;16.67;8.98;;;;;;;;;;4991821;28;20054;-65
2022/05/13 03:02:07;;;;;;;19.88;9.32;;;;;;;;;;4980010;28;20053;-65
2022/05/13 03:04:38;;;;;;;21.80;8.55;;;;;;;;;;4958073;28;20042;-65
2022/05/13 03:07:09;;;;;;;18.00;8.93;;;;;;;;;;4973771;28;20521;-66
2022/05/13 03:09:39;;;;;;;16.17;8.00;;;;;;;;;;4990660;28;20058;-65
2022/05/13 03:12:11;;;;;;;18.02;9.77;;;;;;;;;;4970982;28;20066;-65
2022/05/13 03:14:43;;;;;;;18.58;9.57;;;;;;;;;;4971266;28;20058;-65
2022/05/13 03:17:13;;;;;;;19.27;8.90;;;;;;;;;;4970968;28;20510;-65
2022/05/13 03:19:43;;;;;;;20.80;9.40;;;;;;;;;;4959063;28;20054;-66
2022/05/13 03:22:14;;;;;;;21.10;8.88;;;;;;;;;;4970919;28;20127;-65
2022/05/13 03:24:45;;;;;;;17.90;8.15;;;;;;;;;;4961679;28;20454;-65
2022/05/13 03:27:16;;;;;;;24.20;9.85;;;;;;;;;;4951386;28;20054;-65
2022/05/13 03:29:46;;;;;;;25.83;10.80;;;;;;;;;;4951528;28;20059;-66
2022/05/13 03:32:17;;;;;;;22.08;9.63;;;;;;;;;;4951673;28;20055;-65
2022/05/13 03:34:47;;;;;;;24.08;10.45;;;;;;;;;;4932052;29;20058;-66
2022/05/13 03:37:18;;;;;;;24.83;8.98;;;;;;;;;;4913247;29;20052;-65
2022/05/13 03:39:48;;;;;;;22.73;9.10;;;;;;;;;;4897239;29;20536;-65
2022/05/13 03:42:22;;;;;;;24.60;10.10;;;;;;;;;;4922895;29;20056;-66
2022/05/13 03:44:53;;;;;;;21.70;9.88;;;;;;;;;;4916149;29;20496;-65
2022/05/13 03:47:24;;;;;;;19.27;9.70;;;;;;;;;;4916735;29;20063;-65
2022/05/13 03:49:54;;;;;;;19.00;9.18;;;;;;;;;;4931905;28;20056;-65
2022/05/13 03:52:25;;;;;;;18.23;9.32;;;;;;;;;;4900271;29;20075;-65
2022/05/13 03:54:57;;;;;;;21.25;10.07;;;;;;;;;;4884991;29;20236;-66
2022/05/13 03:57:27;;;;;;;29.45;12.52;;;;;;;;;;4932037;29;20067;-66
2022/05/13 03:59:58;;;;;;;29.58;11.13;;;;;;;;;;4922464;29;20544;-65
2022/05/13 04:02:28;;;;;;;30.95;12.38;;;;;;;;;;4952189;28;20051;-65
2022/05/13 04:10:37;;;;;;;29.33;12.48;;;;;;;;;;4912671;29;20057;-66
2022/05/13 04:16:09;;;;;;;30.35;13.13;;;;;;;;;;4898285;29;20051;-66
2022/05/13 04:18:46;;;;;;;29.02;13.13;;;;;;;;;;4969530;28;20053;-65
2022/05/13 04:21:18;;;;;;;24.60;11.10;;;;;;;;;;4938067;28;20569;-65
2022/05/13 04:23:52;;;;;;;27.13;11.45;;;;;;;;;;4969890;28;20055;-65
2022/05/13 04:26:24;;;;;;;25.90;11.60;;;;;;;;;;4949651;29;20075;-66
2022/05/13 04:28:56;;;;;;;22.52;10.45;;;;;;;;;;4966079;28;20054;-65
2022/05/13 04:31:33;;;;;;;24.20;10.73;;;;;;;;;;4950380;28;20067;-65
2022/05/13 04:34:05;;;;;;;30.60;11.85;;;;;;;;;;4934503;28;20051;-66
2022/05/13 04:36:37;;;;;;;27.08;12.70;;;;;;;;;;4967904;28;20051;-65
2022/05/13 04:39:07;;;;;;;30.73;12.38;;;;;;;;;;4969990;28;20051;-65
2022/05/13 04:44:29;;;;;;;27.48;12.38;;;;;;;;;;4950323;29;20047;-65
2022/05/13 04:47:00;;;;;;;30.58;12.45;;;;;;;;;;4950482;29;20067;-65
2022/05/13 04:49:30;;;;;;;25.17;10.82;;;;;;;;;;4950750;29;20423;-65
2022/05/13 04:52:01;;;;;;;26.63;12.35;;;;;;;;;;4950347;29;20055;-65
2022/05/13 04:54:31;;;;;;;27.25;10.70;;;;;;;;;;4969698;28;20043;-65
2022/05/13 04:57:02;;;;;;;29.23;13.10;;;;;;;;;;4973118;28;20055;-65
2022/05/13 04:59:32;;;;;;;27.73;12.35;;;;;;;;;;4969994;28;20055;-65
2022/05/13 05:02:03;;;;;;;32.80;13.23;;;;;;;;;;4969440;28;20058;-65
2022/05/13 05:04:34;;;;;;;27.05;12.18;;;;;;;;;;4969639;28;20066;-65
2022/05/13 05:07:04;;;;;;;25.02;11.73;;;;;;;;;;4983362;28;20050;-65
2022/05/13 05:09:36;;;;;;;27.30;12.48;;;;;;;;;;4956678;28;20047;-65
2022/05/13 05:12:10;;;;;;;26.40;11.98;;;;;;;;;;4972940;28;20541;-66
2022/05/13 05:14:41;;;;;;;25.75;12.70;;;;;;;;;;4972820;28;20062;-65
2022/05/13 05:17:11;;;;;;;26.35;12.23;;;;;;;;;;4988833;28;20050;-65
2022/05/13 05:19:42;;;;;;;28.95;13.00;;;;;;;;;;4972489;28;20054;-65
2022/05/13 05:22:13;;;;;;;33.13;12.73;;;;;;;;;;5002402;28;20061;-65
2022/05/13 05:24:45;;;;;;;27.30;13.18;;;;;;;;;;5008088;28;20042;-66
2022/05/13 05:27:16;;;;;;;30.40;13.88;;;;;;;;;;5008208;28;20112;-65
2022/05/13 05:29:46;;;;;;;29.23;13.13;;;;;;;;;;4980510;28;20050;-66
2022/05/13 05:32:17;;;;;;;29.70;13.27;;;;;;;;;;5008167;28;20045;-66
2022/05/13 05:34:48;;;;;;;28.63;12.73;;;;;;;;;;4992125;28;20053;-65
2022/05/13 05:37:19;;;;;;;25.17;11.95;;;;;;;;;;4960083;28;20074;-65
2022/05/13 05:39:49;;;;;;;26.73;11.73;;;;;;;;;;4992594;28;20063;-66
2022/05/13 05:42:20;;;;;;;28.23;13.02;;;;;;;;;;4992148;28;20062;-66
2022/05/13 05:44:51;;;;;;;25.90;12.20;;;;;;;;;;4944260;28;20050;-66
2022/05/13 05:47:22;;;;;;;28.02;12.00;;;;;;;;;;4960688;28;20065;-65
2022/05/13 05:49:53;;;;;;;25.83;12.32;;;;;;;;;;4992461;28;20582;-65
2022/05/13 05:52:24;;;;;;;26.15;11.88;;;;;;;;;;4992253;28;20058;-65
2022/05/13 05:58:05;;;;;;;23.77;11.00;;;;;;;;;;4991745;28;20065;-66
2022/05/13 06:00:39;;;;;;;25.20;10.13;;;;;;;;;;4936727;29;20051;-65
2022/05/13 06:03:10;;;;;;;20.40;9.95;;;;;;;;;;4936813;29;20051;-66
2022/05/13 06:05:43;;;;;;;21.98;9.70;;;;;;;;;;4905783;29;20478;-65
2022/05/13 06:08:13;;;;;;;19.90;10.40;;;;;;;;;;5001448;28;20050;-66
2022/05/13 06:10:44;;;;;;;23.17;9.63;;;;;;;;;;4995063;28;20054;-66
2022/05/13 06:13:15;;;;;;;20.38;9.18;;;;;;;;;;5007464;28;20045;-65
2022/05/13 06:15:45;;;;;;;18.90;9.10;;;;;;;;;;5031061;28;20811;-65
2022/05/13 06:18:16;;;;;;;18.27;8.18;;;;;;;;;;5031330;28;20088;-66
2022/05/13 06:20:46;;;;;;;15.27;7.85;;;;;;;;;;4991415;28;20057;-65
2022/05/13 06:23:17;;;;;;;15.48;8.13;;;;;;;;;;4991607;28;20066;-66
2022/05/13 06:25:48;;;;;;;17.90;7.88;;;;;;;;;;4975679;28;20066;-66
2022/05/13 06:28:25;;;;;;;17.63;7.72;;;;;;;;;;4933306;29;20071;-65
2022/05/13 06:30:56;;;;;;;14.52;7.32;;;;;;;;;;4940447;28;20546;-65
2022/05/13 06:33:28;;;;;;;15.85;7.53;;;;;;;;;;4971985;28;20061;-66
2022/05/13 06:35:58;;;;;;;15.50;7.30;;;;;;;;;;4972037;28;20055;-66
2022/05/13 06:38:29;;;;;;;16.63;7.07;;;;;;;;;;4971924;28;20066;-66
2022/05/13 06:40:59;;;;;;;19.17;6.97;;;;;;;;;;4956183;28;20070;-66
2022/05/13 06:43:31;;;;;;;14.10;6.97;;;;;;;;;;4971786;28;20050;-66
2022/05/13 06:46:03;;;;;;;15.15;7.03;;;;;;;;;;4971655;28;20052;-66
2022/05/13 06:48:33;;;;;;;11.50;6.72;;;;;;;;;;4971846;28;20054;-66
2022/05/13 06:51:05;;;;;;;13.48;6.88;;;;;;;;;;4893301;29;20056;-65
2022/05/13 06:53:36;;;;;;;13.82;6.70;;;;;;;;;;4932905;29;20051;-66
2022/05/13 06:56:06;;;;;;;16.35;7.32;;;;;;;;;;4933006;29;20068;-66
2022/05/13 06:58:37;;;;;;;15.00;6.57;;;;;;;;;;4955167;28;20059;-66
2022/05/13 07:01:07;;;;;;;17.63;8.70;;;;;;;;;;4971345;28;20059;-66
2022/05/13 07:03:38;;;;;;;12.38;6.65;;;;;;;;;;4955341;28;20051;-66
2022/05/13 07:06:09;;;;;;;15.85;6.55;;;;;;;;;;4986489;28;20551;-66
2022/05/13 07:08:39;;;;;;;13.65;7.22;;;;;;;;;;5013515;28;20058;-66
2022/05/13 07:11:10;;;;;;;12.85;6.97;;;;;;;;;;5024869;28;20060;-66
2022/05/13 07:13:44;;;;;;;16.85;6.72;;;;;;;;;;5049780;28;20045;-66
2022/05/13 07:16:15;;;;;;;17.67;6.85;;;;;;;;;;5034115;28;20068;-66
2022/05/13 07:18:47;;;;;;;14.80;7.13;;;;;;;;;;5033799;28;20173;-66
2022/05/13 07:21:18;;;;;;;14.70;6.32;;;;;;;;;;5009891;28;20054;-66
2022/05/13 07:23:49;;;;;;;13.43;6.38;;;;;;;;;;4978246;28;20058;-66
2022/05/13 07:26:19;;;;;;;16.75;6.70;;;;;;;;;;5009992;28;20045;-65
2022/05/13 07:28:50;;;;;;;12.55;7.20;;;;;;;;;;4982778;28;20079;-66
2022/05/13 07:31:21;;;;;;;15.23;7.10;;;;;;;;;;5049609;28;20559;-66
2022/05/13 07:33:52;;;;;;;14.30;6.78;;;;;;;;;;5016210;28;20057;-66
2022/05/13 07:36:23;;;;;;;14.82;6.93;;;;;;;;;;5016556;28;20100;-66
2022/05/13 07:41:44;;;;;;;17.70;7.13;;;;;;;;;;5018730;28;20060;-66
2022/05/13 07:44:16;;;;;;;17.60;8.30;;;;;;;;;;5049448;28;20056;-66
2022/05/13 07:46:46;;;;;;;21.95;8.05;;;;;;;;;;5049070;28;20056;-66
2022/05/13 07:49:17;;;;;;;16.08;7.80;;;;;;;;;;4999828;28;20531;-66
2022/05/13 07:51:48;;;;;;;17.88;7.57;;;;;;;;;;5049310;28;20057;-66
2022/05/13 07:54:18;;;;;;;17.63;7.80;;;;;;;;;;5048641;28;20176;-66
2022/05/13 07:56:49;;;;;;;17.73;7.25;;;;;;;;;;5028803;28;20057;-66
2022/05/13 07:59:20;;;;;;;19.08;6.45;;;;;;;;;;5069194;28;20439;-66
2022/05/13 08:01:51;;;;;;;16.63;7.88;;;;;;;;;;5089046;28;20044;-66
2022/05/13 08:04:21;;;;;;;17.23;7.60;;;;;;;;;;5056281;28;20471;-66
2022/05/13 08:06:52;;;;;;;12.35;7.18;;;;;;;;;;5071894;28;20056;-66
2022/05/13 08:09:22;;;;;;;15.45;6.63;;;;;;;;;;5089280;28;20044;-66
2022/05/13 08:11:54;;;;;;;15.10;7.07;;;;;;;;;;5088888;28;20060;-66
2022/05/13 08:14:25;;;;;;;13.68;6.85;;;;;;;;;;5089010;28;20048;-67
2022/05/13 08:16:55;;;;;;;15.18;8.20;;;;;;;;;;5068638;28;20048;-66
2022/05/13 08:19:26;;;;;;;13.75;7.30;;;;;;;;;;5068877;28;20200;-66
2022/05/13 08:21:56;;;;;;;14.80;6.97;;;;;;;;;;5052470;28;20063;-66
2022/05/13 08:24:27;;;;;;;14.65;7.70;;;;;;;;;;5068596;28;20500;-66
2022/05/13 08:26:58;;;;;;;14.18;7.55;;;;;;;;;;5068512;28;20181;-67
2022/05/13 08:29:28;;;;;;;13.85;6.43;;;;;;;;;;5068543;28;20416;-67
2022/05/13 08:31:59;;;;;;;13.98;7.20;;;;;;;;;;5068749;28;20152;-66
2022/05/13 08:34:30;;;;;;;14.75;6.72;;;;;;;;;;5068469;28;20060;-66
2022/05/13 08:37:00;;;;;;;11.95;6.18;;;;;;;;;;5068657;28;20073;-66
2022/05/13 08:39:31;;;;;;;12.00;6.00;;;;;;;;;;5034898;28;21145;-66
2022/05/13 08:42:23;;;;;;;11.38;5.53;;;;;;;;;;5068939;28;20808;-66
2022/05/13 08:44:55;;;;;;;12.63;5.32;;;;;;;;;;5068617;28;20049;-66
2022/05/13 08:47:42;;;;;;;12.68;5.40;;;;;;;;;;5068282;28;20504;-66
2022/05/13 08:50:19;;;;;;;12.18;5.70;;;;;;;;;;5019027;28;20056;-67
2022/05/13 08:53:08;;;;;;;10.95;5.53;;;;;;;;;;5068232;28;20036;-66
2022/05/13 08:55:51;;;;;;;11.35;5.95;;;;;;;;;;5092649;28;20051;-67
2022/05/13 08:58:24;;;;;;;11.75;6.70;;;;;;;;;;5111399;28;20054;-66
2022/05/13 09:00:57;;;;;;;13.07;6.10;;;;;;;;;;5110915;28;20062;-66
2022/05/13 09:03:34;;;;;;;12.27;5.57;;;;;;;;;;5111209;28;20032;-66
2022/05/13 09:06:13;;;;;;;13.50;6.65;;;;;;;;;;5114171;28;20046;-67
2022/05/13 09:08:47;;;;;;;12.93;6.53;;;;;;;;;;5115449;28;20050;-66
2022/05/13 09:11:34;;;;;;;17.92;6.45;;;;;;;;;;5115271;28;20051;-66
2022/05/13 09:14:17;;;;;;;14.23;6.90;;;;;;;;;;5115372;28;20061;-66
2022/05/13 09:17:22;;;;;;;14.48;6.78;;;;;;;;;;5115152;28;20046;-66
2022/05/13 09:20:06;;;;;;;12.70;6.15;;;;;;;;;;5079775;28;20067;-66
2022/05/13 09:22:50;;;;;;;18.20;8.30;;;;;;;;;;5115081;28;20102;-66
2022/05/13 09:25:27;;;;;;;17.58;7.47;;;;;;;;;;5097308;28;20035;-66
2022/05/13 09:28:01;;;;;;;15.70;7.60;;;;;;;;;;5114800;28;20032;-66
2022/05/13 09:30:47;;;;;;;15.48;6.85;;;;;;;;;;5071649;28;20060;-67
2022/05/13 09:33:40;;;;;;;13.95;6.78;;;;;;;;;;5071621;28;20055;-66
2022/05/13 09:36:32;;;;;;;13.80;5.82;;;;;;;;;;5071573;28;20385;-66
2022/05/13 09:39:26;;;;;;;13.98;6.63;;;;;;;;;;5071812;28;20067;-66
2022/05/13 09:41:56;;;;;;;13.50;5.93;;;;;;;;;;4992134;28;20058;-66
2022/05/13 09:44:27;;;;;;;9.85;5.68;;;;;;;;;;4992439;28;20063;-66
2022/05/13 09:47:24;;;;;;;14.75;6.55;;;;;;;;;;4992154;28;20065;-66
2022/05/13 09:50:44;;;;;;;13.80;7.78;;;;;;;;;;4979436;28;20046;-66
2022/05/13 09:53:21;;;;;;;13.27;6.05;;;;;;;;;;4924636;28;20059;-66
2022/05/13 09:55:54;;;;;;;13.30;6.32;;;;;;;;;;4972662;28;20059;-65
2022/05/13 09:58:35;;;;;;;13.90;7.05;;;;;;;;;;4956054;28;20073;-65
2022/05/13 10:01:10;;;;;;;12.68;6.25;;;;;;;;;;4955443;28;20059;-66
2022/05/13 10:03:42;;;;;;;14.82;7.18;;;;;;;;;;4932317;29;20068;-65
2022/05/13 10:06:14;;;;;;;9.85;5.78;;;;;;;;;;4909968;29;20048;-65
2022/05/13 10:15:47;;;;;;;13.77;6.15;;;;;;;;;;4857460;29;20054;-65
2022/05/13 10:18:33;;;;;;;13.07;6.88;;;;;;;;;;4799533;29;20210;-65
2022/05/13 10:21:13;;;;;;;13.18;5.88;;;;;;;;;;4802893;29;20054;-66
2022/05/13 10:24:29;;;;;;;12.40;6.00;;;;;;;;;;4802648;29;20084;-65
2022/05/13 10:27:03;;;;;;;11.80;6.50;;;;;;;;;;4784671;30;20536;-65
2022/05/13 10:29:43;;;;;;;17.23;6.68;;;;;;;;;;4795313;29;20065;-66
2022/05/13 10:32:28;;;;;;;13.18;6.38;;;;;;;;;;4820733;29;20063;-66
2022/05/13 10:35:04;;;;;;;16.17;6.60;;;;;;;;;;4790614;29;20061;-66
2022/05/13 10:38:01;;;;;;;13.05;6.78;;;;;;;;;;4790551;29;20058;-66
2022/05/13 10:40:42;;;;;;;15.05;6.28;;;;;;;;;;4820673;29;20054;-65
2022/05/13 10:43:33;;;;;;;10.70;5.47;;;;;;;;;;4839627;29;20053;-66
2022/05/13 10:46:20;;;;;;;12.27;6.72;;;;;;;;;;4839216;29;20058;-66
2022/05/13 10:48:52;;;;;;;13.98;6.68;;;;;;;;;;4898654;29;20068;-65
2022/05/13 10:51:31;;;;;;;11.82;5.05;;;;;;;;;;4913318;29;20433;-66
2022/05/13 10:54:15;;;;;;;10.73;6.07;;;;;;;;;;4913168;29;20072;-66
2022/05/13 10:57:15;;;;;;;11.75;6.15;;;;;;;;;;5009562;28;20066;-66
2022/05/13 11:03:00;;;;;;;10.95;5.63;;;;;;;;;;5170817;27;20201;-65
2022/05/13 11:05:34;;;;;;;15.48;6.43;;;;;;;;;;5149831;27;20039;-65
2022/05/13 11:08:34;;;;;;;18.10;6.60;;;;;;;;;;5149975;27;20042;-65
2022/05/13 11:11:13;;;;;;;16.90;7.43;;;;;;;;;;5149900;27;20049;-65
2022/05/13 11:13:52;;;;;;;22.70;7.82;;;;;;;;;;5106156;28;20499;-65
2022/05/13 11:16:38;;;;;;;20.33;9.10;;;;;;;;;;5102077;28;20059;-65
2022/05/13 11:19:32;;;;;;;26.23;8.02;;;;;;;;;;5068629;28;20048;-65
2022/05/13 11:22:29;;;;;;;20.63;7.50;;;;;;;;;;5085712;28;20068;-65
2022/05/13 11:28:37;;;;;;;45.83;14.75;;;;;;;;;;5085635;28;20784;-65
2022/05/13 11:31:30;;;;;;;37.50;12.95;;;;;;;;;;5051705;28;20052;-65
2022/05/13 11:34:16;;;;;;;87.22;35.13;;;;;;;;;;5009116;28;20049;-65
2022/05/13 11:36:57;;;;;;;20.35;8.30;;;;;;;;;;4969583;28;20062;-65
2022/05/13 11:39:37;;;;;;;42.88;15.55;;;;;;;;;;4986190;28;20392;-65
2022/05/13 11:42:28;;;;;;;27.73;9.15;;;;;;;;;;4985989;28;20066;-65
2022/05/13 11:45:16;;;;;;;13.52;6.10;;;;;;;;;;4986013;28;20061;-65
2022/05/13 11:47:57;;;;;;;28.38;7.30;;;;;;;;;;5004868;28;20050;-65
2022/05/13 11:50:31;;;;;;;19.90;7.05;;;;;;;;;;4972996;28;20400;-65
2022/05/13 11:53:02;;;;;;;18.98;6.53;;;;;;;;;;5003760;28;20050;-65
2022/05/13 11:55:42;;;;;;;33.22;8.95;;;;;;;;;;4969584;28;20438;-65
2022/05/13 11:58:49;;;;;;;64.00;21.55;;;;;;;;;;4985449;28;20050;-65
2022/05/13 12:01:36;;;;;;;66.28;31.13;;;;;;;;;;4985397;28;20059;-65
2022/05/13 12:04:14;;;;;;;53.28;21.38;;;;;;;;;;4985204;28;20058;-65
2022/05/13 12:06:50;;;;;;;26.27;7.30;;;;;;;;;;5004886;28;20062;-65
2022/05/13 12:09:33;;;;;;;42.88;12.75;;;;;;;;;;4930398;29;20201;-65
2022/05/13 12:12:26;;;;;;;21.92;9.07;;;;;;;;;;4927070;29;20056;-65
2022/05/13 12:15:11;;;;;;;16.92;8.30;;;;;;;;;;4941615;29;20055;-65
2022/05/13 12:18:00;;;;;;;14.43;5.20;;;;;;;;;;4953003;29;20062;-65
2022/05/13 12:21:16;;;;;;;17.33;5.72;;;;;;;;;;4921450;29;20055;-65
2022/05/13 12:24:03;;;;;;;14.55;5.28;;;;;;;;;;4895721;29;20521;-65
2022/05/13 12:26:51;;;;;;;31.92;14.80;;;;;;;;;;4878594;29;20056;-65
2022/05/13 12:29:39;;;;;;;24.50;11.00;;;;;;;;;;4877143;29;20083;-65
2022/05/13 12:32:22;;;;;;;15.25;6.45;;;;;;;;;;4861777;29;20064;-65
2022/05/13 12:37:49;;;;;;;14.27;6.00;;;;;;;;;;4895853;29;20061;-65
2022/05/13 12:40:22;;;;;;;10.75;4.82;;;;;;;;;;4895755;29;20080;-65
2022/05/13 12:42:53;;;;;;;17.50;5.75;;;;;;;;;;4934632;29;20051;-65
2022/05/13 12:45:41;;;;;;;14.43;5.90;;;;;;;;;;4920887;29;20055;-65
2022/05/13 12:48:15;;;;;;;12.05;4.57;;;;;;;;;;4932836;29;20067;-65
2022/05/13 12:51:10;;;;;;;13.63;6.25;;;;;;;;;;4933409;29;20066;-65
2022/05/13 12:53:58;;;;;;;20.80;7.40;;;;;;;;;;4933372;29;20055;-65
2022/05/13 12:56:43;;;;;;;17.08;5.65;;;;;;;;;;4912924;29;20052;-65
2022/05/13 12:59:16;;;;;;;22.52;7.65;;;;;;;;;;4914453;29;20063;-65
2022/05/13 13:01:51;;;;;;;28.85;8.65;;;;;;;;;;4995418;28;20445;-65
2022/05/13 13:04:26;;;;;;;26.63;8.90;;;;;;;;;;5025077;28;20057;-65
2022/05/13 13:07:08;;;;;;;35.13;11.00;;;;;;;;;;4982753;28;20057;-65
2022/05/13 13:09:44;;;;;;;36.88;11.68;;;;;;;;;;5030698;28;20052;-65
2022/05/13 13:12:30;;;;;;;34.40;11.02;;;;;;;;;;5010145;28;20053;-65
2022/05/13 13:15:29;;;;;;;30.75;10.10;;;;;;;;;;5010396;28;20062;-65
2022/05/13 13:18:01;;;;;;;;;;;;;;;;;;4962758;28;20046;-65
2022/05/13 13:20:32;;;;;;;37.40;15.10;;;;;;;;;;5010256;28;20387;-65
2022/05/13 13:23:06;;;;;;;40.42;13.50;;;;;;;;;;4993925;28;20057;-64
2022/05/13 13:25:46;;;;;;;42.70;14.23;;;;;;;;;;5025911;28;20091;-65
2022/05/13 13:28:32;;;;;;;41.20;14.05;;;;;;;;;;5049925;28;20056;-65
2022/05/13 13:35:35;;;;;;;36.97;14.95;;;;;;;;;;5010379;28;20034;-64
2022/05/13 13:38:08;;;;;;;30.58;9.85;;;;;;;;;;5009943;28;20493;-65
2022/05/13 13:40:46;;;;;;;35.60;13.32;;;;;;;;;;5009848;28;20143;-65
2022/05/13 13:43:23;;;;;;;28.48;11.43;;;;;;;;;;5009932;28;20050;-65
2022/05/13 13:46:15;;;;;;;33.83;12.85;;;;;;;;;;5009856;28;20049;-65
2022/05/13 13:48:55;;;;;;;32.20;14.45;;;;;;;;;;4962227;28;20054;-65
2022/05/13 13:51:56;;;;;;;22.92;10.07;;;;;;;;;;5049646;28;20037;-65
2022/05/13 13:54:41;;;;;;;26.67;10.80;;;;;;;;;;5032657;28;20057;-65
2022/05/13 13:57:32;;;;;;;21.83;9.73;;;;;;;;;;5049609;28;20393;-65
2022/05/13 14:00:08;;;;;;;19.50;8.18;;;;;;;;;;5049259;28;20090;-65
2022/05/13 14:03:00;;;;;;;21.30;9.00;;;;;;;;;;5016957;28;20049;-65
2022/05/13 14:05:36;;;;;;;16.65;7.43;;;;;;;;;;5075785;28;20059;-66
2022/05/13 14:08:12;;;;;;;18.52;8.60;;;;;;;;;;5030648;28;20061;-65
2022/05/13 14:10:54;;;;;;;22.85;9.18;;;;;;;;;;5111858;28;20044;-65
2022/05/13 14:13:30;;;;;;;19.17;8.40;;;;;;;;;;5112326;28;20062;-65
2022/05/13 14:16:08;;;;;;;17.92;8.50;;;;;;;;;;5111916;28;20044;-65
2022/05/13 14:18:39;;;;;;;18.77;8.73;;;;;;;;;;5076164;28;20058;-65
2022/05/13 14:21:24;;;;;;;14.35;7.05;;;;;;;;;;5110899;28;20044;-65
2022/05/13 14:24:04;;;;;;;23.48;11.90;;;;;;;;;;5111613;28;20035;-65
2022/05/13 14:26:52;;;;;;;19.13;7.97;;;;;;;;;;5111926;28;20040;-64
2022/05/13 14:29:25;;;;;;;18.90;8.52;;;;;;;;;;5112055;28;20044;-64
2022/05/13 14:32:03;;;;;;;17.50;8.50;;;;;;;;;;5088568;28;20432;-64
2022/05/13 14:34:34;;;;;;;16.98;7.97;;;;;;;;;;5066996;28;20067;-64
2022/05/13 14:37:12;;;;;;;15.63;7.78;;;;;;;;;;5088681;28;20063;-64
2022/05/13 14:39:49;;;;;;;14.57;6.80;;;;;;;;;;5048305;28;20060;-64
2022/05/13 14:42:50;;;;;;;11.40;6.57;;;;;;;;;;4999222;28;20088;-64
2022/05/13 14:45:42;;;;;;;12.30;6.72;;;;;;;;;;5048563;28;20552;-64
2022/05/13 14:48:20;;;;;;;12.05;6.65;;;;;;;;;;4970008;28;20055;-64
2022/05/13 14:51:12;;;;;;;14.27;6.40;;;;;;;;;;4969833;28;20059;-64
2022/05/13 14:54:05;;;;;;;12.10;6.03;;;;;;;;;;4921895;28;20051;-65
2022/05/13 14:56:57;;;;;;;12.13;6.28;;;;;;;;;;4969672;28;20059;-65
2022/05/13 14:59:36;;;;;;;9.32;5.55;;;;;;;;;;4969390;28;20127;-65
2022/05/13 15:02:13;;;;;;;10.77;5.57;;;;;;;;;;4946561;29;20047;-64
2022/05/13 15:04:56;;;;;;;13.15;6.47;;;;;;;;;;4949950;29;20593;-65
2022/05/13 15:07:39;;;;;;;12.38;6.03;;;;;;;;;;4934098;28;20058;-65
2022/05/13 15:10:14;;;;;;;10.30;5.22;;;;;;;;;;4979394;28;20057;-64
2022/05/13 15:12:47;;;;;;;9.25;5.35;;;;;;;;;;5004764;28;20046;-65
2022/05/13 15:15:18;;;;;;;12.68;5.00;;;;;;;;;;4956584;28;20529;-65
2022/05/13 15:17:55;;;;;;;8.50;5.38;;;;;;;;;;4975944;28;20062;-64
2022/05/13 15:20:26;;;;;;;10.98;5.57;;;;;;;;;;4969607;28;20066;-65
2022/05/13 15:22:57;;;;;;;8.93;5.00;;;;;;;;;;5007968;28;20049;-65
2022/05/13 15:25:29;;;;;;;10.00;4.85;;;;;;;;;;4949930;28;20073;-64
2022/05/13 15:27:59;;;;;;;14.50;6.88;;;;;;;;;;4988657;28;20430;-65
2022/05/13 15:30:30;;;;;;;8.35;5.35;;;;;;;;;;5008019;28;20062;-65
2022/05/13 15:33:01;;;;;;;10.13;4.90;;;;;;;;;;5008236;28;20061;-65
2022/05/13 15:35:31;;;;;;;7.93;4.13;;;;;;;;;;4961156;28;20062;-65
2022/05/13 15:38:02;;;;;;;9.93;5.40;;;;;;;;;;4988345;28;20510;-65
2022/05/13 15:40:33;;;;;;;9.32;4.93;;;;;;;;;;4900090;29;20068;-65
2022/05/13 15:43:04;;;;;;;7.40;4.03;;;;;;;;;;4892902;29;20409;-65
2022/05/13 15:45:39;;;;;;;8.32;4.35;;;;;;;;;;4902315;29;20052;-65
2022/05/13 15:48:11;;;;;;;10.15;4.20;;;;;;;;;;4944603;29;20059;-65
2022/05/13 15:53:31;;;;;;;7.25;3.92;;;;;;;;;;4924862;28;21025;-65
2022/05/13 15:56:09;;;;;;;6.55;3.53;;;;;;;;;;4956576;28;20066;-65
2022/05/13 15:58:41;;;;;;;6.90;3.75;;;;;;;;;;4972648;28;20063;-65
2022/05/13 16:01:33;;;;;;;6.45;3.38;;;;;;;;;;4984048;28;20058;-65